sensor_id;sensor_type;location;lat;lon;timestamp;P1;durP1;ratioP1;P2;durP2;ratioP2
3349;SDS011;1688;51.000;13.684;2023-08-21T00:01:19;0.60;;;0.50;;
3349;SDS011;1688;51.000;13.684;2023-08-21T00:03:52;8.33;;;2.83;;
3349;SDS011;1688;51.000;13.684;2023-08-21T00:06:25;0.60;;;0.50;;
3349;SDS011;1688;51.000;13.684;2023-08-21T00:08:58;0.60;;;0.50;;
3349;SDS011;1688;51.000;13.684;2023-08-21T00:11:32;0.60;;;0.50;;
3349;SDS011;1688;51.000;13.684;2023-08-21T00:14:05;0.60;;;0.50;;
3349;SDS011;1688;51.000;13.684;2023-08-21T00:16:38;0.60;;;0.50;;
3349;SDS011;1688;51.000;13.684;2023-08-21T00:19:11;1.80;;;1.60;;
3349;SDS011;1688;51.000;13.684;2023-08-21T00:21:44;0.60;;;0.50;;
3349;SDS011;1688;51.000;13.684;2023-08-21T00:24:17;0.60;;;0.50;;
3349;SDS011;1688;51.000;13.684;2023-08-21T00:26:50;0.60;;;0.50;;
3349;SDS011;1688;51.000;13.684;2023-08-21T00:29:23;0.60;;;0.50;;
3349;SDS011;1688;51.000;13.684;2023-08-21T00:31:56;0.60;;;0.50;;
3349;SDS011;1688;51.000;13.684;2023-08-21T00:34:28;0.60;;;0.50;;
3349;SDS011;1688;51.000;13.684;2023-08-21T00:37:01;0.70;;;0.60;;
3349;SDS011;1688;51.000;13.684;2023-08-21T00:39:34;0.60;;;0.60;;
3349;SDS011;1688;51.000;13.684;2023-08-21T00:42:07;0.60;;;0.50;;
3349;SDS011;1688;51.000;13.684;2023-08-21T00:44:39;0.60;;;0.40;;
3349;SDS011;1688;51.000;13.684;2023-08-21T00:47:12;0.63;;;0.50;;
3349;SDS011;1688;51.000;13.684;2023-08-21T00:49:45;0.60;;;0.50;;
3349;SDS011;1688;51.000;13.684;2023-08-21T00:52:18;0.83;;;0.83;;
3349;SDS011;1688;51.000;13.684;2023-08-21T00:54:51;0.60;;;0.50;;
3349;SDS011;1688;51.000;13.684;2023-08-21T00:57:24;0.60;;;0.40;;
3349;SDS011;1688;51.000;13.684;2023-08-21T00:59:59;0.60;;;0.50;;
3349;SDS011;1688;51.000;13.684;2023-08-21T01:02:32;0.60;;;0.50;;
3349;SDS011;1688;51.000;13.684;2023-08-21T01:05:05;1.17;;;0.97;;
3349;SDS011;1688;51.000;13.684;2023-08-21T01:13:47;0.60;;;0.50;;
3349;SDS011;1688;51.000;13.684;2023-08-21T01:16:24;0.60;;;0.50;;
3349;SDS011;1688;51.000;13.684;2023-08-21T01:18:58;0.70;;;0.70;;
3349;SDS011;1688;51.000;13.684;2023-08-21T01:21:32;1.70;;;1.27;;
3349;SDS011;1688;51.000;13.684;2023-08-21T01:24:05;0.60;;;0.50;;
3349;SDS011;1688;51.000;13.684;2023-08-21T01:26:38;0.60;;;0.50;;
3349;SDS011;1688;51.000;13.684;2023-08-21T01:29:11;0.60;;;0.50;;
3349;SDS011;1688;51.000;13.684;2023-08-21T01:31:45;0.60;;;0.50;;
3349;SDS011;1688;51.000;13.684;2023-08-21T01:34:23;0.60;;;0.50;;
3349;SDS011;1688;51.000;13.684;2023-08-21T01:36:56;0.60;;;0.47;;
3349;SDS011;1688;51.000;13.684;2023-08-21T01:39:30;0.60;;;0.50;;
3349;SDS011;1688;51.000;13.684;2023-08-21T01:42:03;0.60;;;0.60;;
3349;SDS011;1688;51.000;13.684;2023-08-21T01:44:37;0.60;;;0.50;;
3349;SDS011;1688;51.000;13.684;2023-08-21T01:47:10;0.60;;;0.50;;
3349;SDS011;1688;51.000;13.684;2023-08-21T01:49:43;0.60;;;0.50;;
3349;SDS011;1688;51.000;13.684;2023-08-21T01:52:15;0.60;;;0.50;;
3349;SDS011;1688;51.000;13.684;2023-08-21T01:54:49;0.60;;;0.50;;
3349;SDS011;1688;51.000;13.684;2023-08-21T01:57:22;0.60;;;0.50;;
3349;SDS011;1688;51.000;13.684;2023-08-21T01:59:55;0.60;;;0.50;;
3349;SDS011;1688;51.000;13.684;2023-08-21T02:02:28;0.60;;;0.50;;
3349;SDS011;1688;51.000;13.684;2023-08-21T02:05:01;0.60;;;0.50;;
3349;SDS011;1688;51.000;13.684;2023-08-21T02:07:35;0.60;;;0.50;;
3349;SDS011;1688;51.000;13.684;2023-08-21T02:10:08;0.70;;;0.70;;
3349;SDS011;1688;51.000;13.684;2023-08-21T02:12:42;0.60;;;0.47;;
3349;SDS011;1688;51.000;13.684;2023-08-21T02:15:15;1.37;;;1.27;;
3349;SDS011;1688;51.000;13.684;2023-08-21T02:17:47;0.60;;;0.40;;
3349;SDS011;1688;51.000;13.684;2023-08-21T02:20:20;0.60;;;0.40;;
3349;SDS011;1688;51.000;13.684;2023-08-21T02:22:53;0.60;;;0.40;;
3349;SDS011;1688;51.000;13.684;2023-08-21T02:25:26;0.60;;;0.40;;
3349;SDS011;1688;51.000;13.684;2023-08-21T02:27:59;0.60;;;0.50;;
3349;SDS011;1688;51.000;13.684;2023-08-21T02:30:32;0.60;;;0.40;;
3349;SDS011;1688;51.000;13.684;2023-08-21T02:33:04;0.60;;;0.40;;
3349;SDS011;1688;51.000;13.684;2023-08-21T02:35:37;0.60;;;0.40;;
3349;SDS011;1688;51.000;13.684;2023-08-21T02:38:10;0.60;;;0.50;;
3349;SDS011;1688;51.000;13.684;2023-08-21T02:40:43;0.60;;;0.40;;
3349;SDS011;1688;51.000;13.684;2023-08-21T02:43:16;0.60;;;0.40;;
3349;SDS011;1688;51.000;13.684;2023-08-21T02:45:49;0.60;;;0.40;;
3349;SDS011;1688;51.000;13.684;2023-08-21T02:48:21;0.70;;;0.70;;
3349;SDS011;1688;51.000;13.684;2023-08-21T02:50:54;0.60;;;0.40;;
3349;SDS011;1688;51.000;13.684;2023-08-21T02:53:27;0.60;;;0.60;;
3349;SDS011;1688;51.000;13.684;2023-08-21T02:56:00;0.60;;;0.40;;
3349;SDS011;1688;51.000;13.684;2023-08-21T02:58:33;0.60;;;0.40;;
3349;SDS011;1688;51.000;13.684;2023-08-21T03:01:06;0.60;;;0.50;;
3349;SDS011;1688;51.000;13.684;2023-08-21T03:03:38;0.60;;;0.40;;
3349;SDS011;1688;51.000;13.684;2023-08-21T03:06:11;0.60;;;0.40;;
3349;SDS011;1688;51.000;13.684;2023-08-21T03:08:44;0.60;;;0.40;;
3349;SDS011;1688;51.000;13.684;2023-08-21T03:11:17;0.60;;;0.40;;
3349;SDS011;1688;51.000;13.684;2023-08-21T03:13:50;0.60;;;0.40;;
3349;SDS011;1688;51.000;13.684;2023-08-21T03:16:23;0.60;;;0.40;;
3349;SDS011;1688;51.000;13.684;2023-08-21T03:18:59;0.60;;;0.40;;
3349;SDS011;1688;51.000;13.684;2023-08-21T03:21:32;0.60;;;0.50;;
3349;SDS011;1688;51.000;13.684;2023-08-21T03:24:05;0.60;;;0.40;;
3349;SDS011;1688;51.000;13.684;2023-08-21T03:26:38;0.60;;;0.40;;
3349;SDS011;1688;51.000;13.684;2023-08-21T03:29:11;0.60;;;0.50;;
3349;SDS011;1688;51.000;13.684;2023-08-21T03:31:46;0.60;;;0.40;;
3349;SDS011;1688;51.000;13.684;2023-08-21T03:34:21;0.60;;;0.40;;
3349;SDS011;1688;51.000;13.684;2023-08-21T03:36:54;0.60;;;0.40;;
3349;SDS011;1688;51.000;13.684;2023-08-21T03:39:27;0.60;;;0.40;;
3349;SDS011;1688;51.000;13.684;2023-08-21T03:41:59;0.60;;;0.40;;
3349;SDS011;1688;51.000;13.684;2023-08-21T03:44:32;0.60;;;0.40;;
3349;SDS011;1688;51.000;13.684;2023-08-21T03:47:05;0.60;;;0.50;;
3349;SDS011;1688;51.000;13.684;2023-08-21T03:49:39;0.60;;;0.40;;
3349;SDS011;1688;51.000;13.684;2023-08-21T03:52:11;0.60;;;0.40;;
3349;SDS011;1688;51.000;13.684;2023-08-21T03:54:44;0.60;;;0.40;;
3349;SDS011;1688;51.000;13.684;2023-08-21T03:57:17;0.60;;;0.40;;
3349;SDS011;1688;51.000;13.684;2023-08-21T03:59:50;0.60;;;0.40;;
3349;SDS011;1688;51.000;13.684;2023-08-21T04:02:23;2.83;;;2.60;;
3349;SDS011;1688;51.000;13.684;2023-08-21T04:04:58;3.60;;;2.80;;
3349;SDS011;1688;51.000;13.684;2023-08-21T04:07:30;4.00;;;3.53;;
3349;SDS011;1688;51.000;13.684;2023-08-21T04:10:03;5.60;;;3.43;;
3349;SDS011;1688;51.000;13.684;2023-08-21T04:12:36;4.90;;;2.93;;
3349;SDS011;1688;51.000;13.684;2023-08-21T04:15:09;5.40;;;4.80;;
3349;SDS011;1688;51.000;13.684;2023-08-21T04:17:42;3.70;;;3.10;;
3349;SDS011;1688;51.000;13.684;2023-08-21T04:20:15;4.03;;;2.77;;
3349;SDS011;1688;51.000;13.684;2023-08-21T04:22:48;10.07;;;4.80;;
3349;SDS011;1688;51.000;13.684;2023-08-21T04:25:21;5.47;;;3.40;;
3349;SDS011;1688;51.000;13.684;2023-08-21T04:27:54;6.03;;;3.80;;
3349;SDS011;1688;51.000;13.684;2023-08-21T04:30:27;6.40;;;4.03;;
3349;SDS011;1688;51.000;13.684;2023-08-21T04:33:00;5.97;;;3.03;;
3349;SDS011;1688;51.000;13.684;2023-08-21T04:35:37;4.30;;;3.07;;
3349;SDS011;1688;51.000;13.684;2023-08-21T04:38:14;4.77;;;2.80;;
3349;SDS011;1688;51.000;13.684;2023-08-21T04:40:47;3.37;;;3.07;;
3349;SDS011;1688;51.000;13.684;2023-08-21T04:43:19;5.17;;;3.67;;
3349;SDS011;1688;51.000;13.684;2023-08-21T04:45:53;5.80;;;2.63;;
3349;SDS011;1688;51.000;13.684;2023-08-21T04:48:26;5.57;;;4.20;;
3349;SDS011;1688;51.000;13.684;2023-08-21T04:50:59;4.63;;;3.50;;
3349;SDS011;1688;51.000;13.684;2023-08-21T04:53:32;5.70;;;3.27;;
3349;SDS011;1688;51.000;13.684;2023-08-21T04:56:05;3.93;;;3.10;;
3349;SDS011;1688;51.000;13.684;2023-08-21T04:58:37;4.60;;;3.37;;
3349;SDS011;1688;51.000;13.684;2023-08-21T05:01:10;5.23;;;4.10;;
3349;SDS011;1688;51.000;13.684;2023-08-21T05:03:44;9.27;;;5.07;;
3349;SDS011;1688;51.000;13.684;2023-08-21T05:06:17;3.50;;;3.10;;
3349;SDS011;1688;51.000;13.684;2023-08-21T05:08:50;5.73;;;4.33;;
3349;SDS011;1688;51.000;13.684;2023-08-21T05:11:22;6.17;;;3.90;;
3349;SDS011;1688;51.000;13.684;2023-08-21T05:13:57;7.50;;;3.67;;
3349;SDS011;1688;51.000;13.684;2023-08-21T05:16:33;6.83;;;4.10;;
3349;SDS011;1688;51.000;13.684;2023-08-21T05:19:07;5.07;;;4.60;;
3349;SDS011;1688;51.000;13.684;2023-08-21T05:21:39;8.03;;;5.23;;
3349;SDS011;1688;51.000;13.684;2023-08-21T05:24:12;25.60;;;4.30;;
3349;SDS011;1688;51.000;13.684;2023-08-21T05:26:45;6.00;;;4.70;;
3349;SDS011;1688;51.000;13.684;2023-08-21T05:29:18;4.47;;;4.07;;
3349;SDS011;1688;51.000;13.684;2023-08-21T05:31:51;8.53;;;4.43;;
3349;SDS011;1688;51.000;13.684;2023-08-21T05:34:23;5.13;;;3.70;;
3349;SDS011;1688;51.000;13.684;2023-08-21T05:36:57;5.70;;;4.70;;
3349;SDS011;1688;51.000;13.684;2023-08-21T05:39:30;6.10;;;4.93;;
3349;SDS011;1688;51.000;13.684;2023-08-21T05:42:03;7.00;;;4.03;;
3349;SDS011;1688;51.000;13.684;2023-08-21T05:44:36;8.70;;;4.87;;
3349;SDS011;1688;51.000;13.684;2023-08-21T05:47:09;8.20;;;6.20;;
3349;SDS011;1688;51.000;13.684;2023-08-21T05:49:42;7.03;;;4.80;;
3349;SDS011;1688;51.000;13.684;2023-08-21T05:52:15;6.90;;;5.00;;
3349;SDS011;1688;51.000;13.684;2023-08-21T05:54:48;7.87;;;4.63;;
3349;SDS011;1688;51.000;13.684;2023-08-21T05:57:21;5.23;;;3.43;;
3349;SDS011;1688;51.000;13.684;2023-08-21T05:59:53;6.83;;;5.90;;
3349;SDS011;1688;51.000;13.684;2023-08-21T06:02:26;4.37;;;3.43;;
3349;SDS011;1688;51.000;13.684;2023-08-21T06:04:59;3.80;;;3.40;;
3349;SDS011;1688;51.000;13.684;2023-08-21T06:07:32;5.87;;;4.47;;
3349;SDS011;1688;51.000;13.684;2023-08-21T06:10:05;4.80;;;4.40;;
3349;SDS011;1688;51.000;13.684;2023-08-21T06:12:40;8.40;;;4.23;;
3349;SDS011;1688;51.000;13.684;2023-08-21T06:15:13;6.40;;;4.50;;
3349;SDS011;1688;51.000;13.684;2023-08-21T06:17:46;6.67;;;3.97;;
3349;SDS011;1688;51.000;13.684;2023-08-21T06:20:19;6.13;;;4.67;;
3349;SDS011;1688;51.000;13.684;2023-08-21T06:22:52;4.70;;;4.03;;
3349;SDS011;1688;51.000;13.684;2023-08-21T06:25:25;7.63;;;4.77;;
3349;SDS011;1688;51.000;13.684;2023-08-21T06:27:58;6.23;;;4.47;;
3349;SDS011;1688;51.000;13.684;2023-08-21T06:30:31;9.20;;;4.20;;
3349;SDS011;1688;51.000;13.684;2023-08-21T06:33:04;5.87;;;4.27;;
3349;SDS011;1688;51.000;13.684;2023-08-21T06:35:37;5.00;;;4.10;;
3349;SDS011;1688;51.000;13.684;2023-08-21T06:38:10;6.60;;;4.30;;
3349;SDS011;1688;51.000;13.684;2023-08-21T06:40:44;4.47;;;4.03;;
3349;SDS011;1688;51.000;13.684;2023-08-21T06:43:18;5.10;;;4.43;;
3349;SDS011;1688;51.000;13.684;2023-08-21T06:45:51;9.00;;;5.30;;
3349;SDS011;1688;51.000;13.684;2023-08-21T06:48:24;4.93;;;4.03;;
3349;SDS011;1688;51.000;13.684;2023-08-21T06:50:57;5.40;;;4.90;;
3349;SDS011;1688;51.000;13.684;2023-08-21T06:53:30;6.00;;;4.43;;
3349;SDS011;1688;51.000;13.684;2023-08-21T06:56:03;6.13;;;4.13;;
3349;SDS011;1688;51.000;13.684;2023-08-21T06:58:36;5.07;;;3.83;;
3349;SDS011;1688;51.000;13.684;2023-08-21T07:01:09;6.40;;;4.37;;
3349;SDS011;1688;51.000;13.684;2023-08-21T07:03:42;6.60;;;4.93;;
3349;SDS011;1688;51.000;13.684;2023-08-21T07:06:15;8.80;;;4.80;;
3349;SDS011;1688;51.000;13.684;2023-08-21T07:08:48;7.10;;;4.40;;
3349;SDS011;1688;51.000;13.684;2023-08-21T07:11:21;7.00;;;4.77;;
3349;SDS011;1688;51.000;13.684;2023-08-21T07:13:54;4.60;;;4.20;;
3349;SDS011;1688;51.000;13.684;2023-08-21T07:16:27;6.63;;;4.83;;
3349;SDS011;1688;51.000;13.684;2023-08-21T07:19:00;8.30;;;4.00;;
3349;SDS011;1688;51.000;13.684;2023-08-21T07:21:33;7.27;;;4.97;;
3349;SDS011;1688;51.000;13.684;2023-08-21T07:24:08;6.07;;;3.60;;
3349;SDS011;1688;51.000;13.684;2023-08-21T07:26:41;5.30;;;4.80;;
3349;SDS011;1688;51.000;13.684;2023-08-21T07:29:14;5.03;;;3.87;;
3349;SDS011;1688;51.000;13.684;2023-08-21T07:31:47;4.53;;;4.03;;
3349;SDS011;1688;51.000;13.684;2023-08-21T07:34:19;6.20;;;4.47;;
3349;SDS011;1688;51.000;13.684;2023-08-21T07:36:52;7.00;;;5.77;;
3349;SDS011;1688;51.000;13.684;2023-08-21T07:39:25;6.73;;;4.53;;
3349;SDS011;1688;51.000;13.684;2023-08-21T07:41:58;8.20;;;4.87;;
3349;SDS011;1688;51.000;13.684;2023-08-21T07:44:30;9.70;;;5.50;;
3349;SDS011;1688;51.000;13.684;2023-08-21T07:47:03;8.23;;;5.20;;
3349;SDS011;1688;51.000;13.684;2023-08-21T07:49:36;10.00;;;5.50;;
3349;SDS011;1688;51.000;13.684;2023-08-21T07:52:09;7.00;;;4.60;;
3349;SDS011;1688;51.000;13.684;2023-08-21T07:54:42;5.67;;;4.83;;
3349;SDS011;1688;51.000;13.684;2023-08-21T07:57:14;8.20;;;5.10;;
3349;SDS011;1688;51.000;13.684;2023-08-21T07:59:47;10.83;;;5.77;;
3349;SDS011;1688;51.000;13.684;2023-08-21T08:02:20;5.77;;;4.10;;
3349;SDS011;1688;51.000;13.684;2023-08-21T08:04:53;5.67;;;4.47;;
3349;SDS011;1688;51.000;13.684;2023-08-21T08:07:26;8.93;;;4.90;;
3349;SDS011;1688;51.000;13.684;2023-08-21T08:09:59;5.80;;;4.80;;
3349;SDS011;1688;51.000;13.684;2023-08-21T08:12:32;6.90;;;3.80;;
3349;SDS011;1688;51.000;13.684;2023-08-21T08:15:05;5.90;;;5.27;;
3349;SDS011;1688;51.000;13.684;2023-08-21T08:17:39;7.43;;;5.60;;
3349;SDS011;1688;51.000;13.684;2023-08-21T08:20:12;12.13;;;5.17;;
3349;SDS011;1688;51.000;13.684;2023-08-21T08:22:45;7.27;;;4.83;;
3349;SDS011;1688;51.000;13.684;2023-08-21T08:25:18;5.83;;;4.07;;
3349;SDS011;1688;51.000;13.684;2023-08-21T08:27:51;9.23;;;5.13;;
3349;SDS011;1688;51.000;13.684;2023-08-21T08:30:24;7.53;;;3.53;;
3349;SDS011;1688;51.000;13.684;2023-08-21T08:32:57;8.03;;;4.80;;
3349;SDS011;1688;51.000;13.684;2023-08-21T08:35:30;12.13;;;5.80;;
3349;SDS011;1688;51.000;13.684;2023-08-21T08:38:02;117.90;;;15.47;;
3349;SDS011;1688;51.000;13.684;2023-08-21T08:44:29;6.03;;;4.27;;
3349;SDS011;1688;51.000;13.684;2023-08-21T08:47:02;5.97;;;4.90;;
3349;SDS011;1688;51.000;13.684;2023-08-21T08:49:36;6.50;;;4.50;;
3349;SDS011;1688;51.000;13.684;2023-08-21T08:52:09;15.43;;;4.97;;
3349;SDS011;1688;51.000;13.684;2023-08-21T08:54:44;9.60;;;4.60;;
3349;SDS011;1688;51.000;13.684;2023-08-21T08:57:17;7.53;;;5.13;;
3349;SDS011;1688;51.000;13.684;2023-08-21T08:59:50;5.83;;;4.77;;
3349;SDS011;1688;51.000;13.684;2023-08-21T09:02:24;5.23;;;4.53;;
3349;SDS011;1688;51.000;13.684;2023-08-21T09:04:58;10.30;;;4.87;;
3349;SDS011;1688;51.000;13.684;2023-08-21T09:07:31;5.30;;;3.37;;
3349;SDS011;1688;51.000;13.684;2023-08-21T09:10:04;8.13;;;5.40;;
3349;SDS011;1688;51.000;13.684;2023-08-21T09:12:45;6.20;;;4.30;;
3349;SDS011;1688;51.000;13.684;2023-08-21T09:15:18;6.43;;;5.00;;
3349;SDS011;1688;51.000;13.684;2023-08-21T09:17:54;7.10;;;4.77;;
3349;SDS011;1688;51.000;13.684;2023-08-21T09:20:27;8.40;;;5.27;;
3349;SDS011;1688;51.000;13.684;2023-08-21T09:23:07;8.40;;;4.90;;
3349;SDS011;1688;51.000;13.684;2023-08-21T09:25:40;5.80;;;4.67;;
3349;SDS011;1688;51.000;13.684;2023-08-21T09:28:13;6.03;;;4.07;;
3349;SDS011;1688;51.000;13.684;2023-08-21T09:30:53;8.00;;;4.77;;
3349;SDS011;1688;51.000;13.684;2023-08-21T09:33:27;4.27;;;3.87;;
3349;SDS011;1688;51.000;13.684;2023-08-21T09:36:00;16.40;;;6.37;;
3349;SDS011;1688;51.000;13.684;2023-08-21T09:38:33;11.00;;;4.80;;
3349;SDS011;1688;51.000;13.684;2023-08-21T09:41:07;5.03;;;3.50;;
3349;SDS011;1688;51.000;13.684;2023-08-21T09:43:41;6.50;;;4.90;;
3349;SDS011;1688;51.000;13.684;2023-08-21T09:46:15;9.27;;;5.33;;
3349;SDS011;1688;51.000;13.684;2023-08-21T09:48:49;8.80;;;5.47;;
3349;SDS011;1688;51.000;13.684;2023-08-21T09:51:23;5.47;;;4.57;;
3349;SDS011;1688;51.000;13.684;2023-08-21T09:53:59;14.80;;;6.30;;
3349;SDS011;1688;51.000;13.684;2023-08-21T09:56:35;6.87;;;4.07;;
3349;SDS011;1688;51.000;13.684;2023-08-21T09:59:08;6.57;;;4.60;;
3349;SDS011;1688;51.000;13.684;2023-08-21T10:01:41;4.97;;;4.27;;
3349;SDS011;1688;51.000;13.684;2023-08-21T10:04:15;4.13;;;3.40;;
3349;SDS011;1688;51.000;13.684;2023-08-21T10:06:49;4.93;;;3.83;;
3349;SDS011;1688;51.000;13.684;2023-08-21T10:09:24;4.83;;;3.70;;
3349;SDS011;1688;51.000;13.684;2023-08-21T10:11:59;5.00;;;4.07;;
3349;SDS011;1688;51.000;13.684;2023-08-21T10:14:32;4.30;;;3.57;;
3349;SDS011;1688;51.000;13.684;2023-08-21T10:17:05;4.27;;;3.67;;
3349;SDS011;1688;51.000;13.684;2023-08-21T10:19:40;7.30;;;3.60;;
3349;SDS011;1688;51.000;13.684;2023-08-21T10:22:13;4.47;;;3.90;;
3349;SDS011;1688;51.000;13.684;2023-08-21T10:24:45;5.80;;;3.67;;
3349;SDS011;1688;51.000;13.684;2023-08-21T10:27:28;5.63;;;2.80;;
3349;SDS011;1688;51.000;13.684;2023-08-21T10:30:10;5.33;;;3.47;;
3349;SDS011;1688;51.000;13.684;2023-08-21T10:32:48;3.13;;;2.67;;
3349;SDS011;1688;51.000;13.684;2023-08-21T10:35:24;4.37;;;3.30;;
3349;SDS011;1688;51.000;13.684;2023-08-21T10:41:05;4.13;;;3.70;;
3349;SDS011;1688;51.000;13.684;2023-08-21T10:43:40;3.97;;;3.67;;
3349;SDS011;1688;51.000;13.684;2023-08-21T10:46:18;4.83;;;3.00;;
3349;SDS011;1688;51.000;13.684;2023-08-21T10:48:50;4.70;;;2.80;;
3349;SDS011;1688;51.000;13.684;2023-08-21T10:51:23;4.97;;;3.90;;
3349;SDS011;1688;51.000;13.684;2023-08-21T10:54:10;3.53;;;3.17;;
3349;SDS011;1688;51.000;13.684;2023-08-21T10:56:43;3.73;;;2.97;;
3349;SDS011;1688;51.000;13.684;2023-08-21T10:59:16;6.20;;;2.30;;
3349;SDS011;1688;51.000;13.684;2023-08-21T11:01:49;3.30;;;3.00;;
3349;SDS011;1688;51.000;13.684;2023-08-21T11:04:24;4.60;;;3.20;;
3349;SDS011;1688;51.000;13.684;2023-08-21T11:06:56;5.00;;;3.80;;
3349;SDS011;1688;51.000;13.684;2023-08-21T11:09:29;8.00;;;3.27;;
3349;SDS011;1688;51.000;13.684;2023-08-21T11:12:09;4.80;;;3.23;;
3349;SDS011;1688;51.000;13.684;2023-08-21T11:14:43;4.53;;;3.90;;
3349;SDS011;1688;51.000;13.684;2023-08-21T11:17:17;3.23;;;2.93;;
3349;SDS011;1688;51.000;13.684;2023-08-21T11:19:52;3.60;;;3.20;;
3349;SDS011;1688;51.000;13.684;2023-08-21T11:22:28;4.60;;;3.70;;
3349;SDS011;1688;51.000;13.684;2023-08-21T11:25:03;5.03;;;4.13;;
3349;SDS011;1688;51.000;13.684;2023-08-21T11:27:37;4.37;;;3.40;;
3349;SDS011;1688;51.000;13.684;2023-08-21T11:30:10;10.03;;;4.67;;
3349;SDS011;1688;51.000;13.684;2023-08-21T11:32:44;4.40;;;3.30;;
3349;SDS011;1688;51.000;13.684;2023-08-21T11:35:17;5.67;;;4.20;;
3349;SDS011;1688;51.000;13.684;2023-08-21T11:37:50;4.63;;;3.63;;
3349;SDS011;1688;51.000;13.684;2023-08-21T11:40:22;4.70;;;4.17;;
3349;SDS011;1688;51.000;13.684;2023-08-21T11:43:04;4.67;;;3.30;;
3349;SDS011;1688;51.000;13.684;2023-08-21T11:45:41;4.33;;;3.90;;
3349;SDS011;1688;51.000;13.684;2023-08-21T11:48:30;4.53;;;3.87;;
3349;SDS011;1688;51.000;13.684;2023-08-21T11:51:04;6.13;;;3.33;;
3349;SDS011;1688;51.000;13.684;2023-08-21T11:53:38;4.10;;;3.50;;
3349;SDS011;1688;51.000;13.684;2023-08-21T11:56:15;5.57;;;3.50;;
3349;SDS011;1688;51.000;13.684;2023-08-21T11:58:48;4.20;;;3.90;;
3349;SDS011;1688;51.000;13.684;2023-08-21T12:01:22;4.60;;;3.73;;
3349;SDS011;1688;51.000;13.684;2023-08-21T12:03:55;5.40;;;3.73;;
3349;SDS011;1688;51.000;13.684;2023-08-21T12:06:29;4.10;;;3.37;;
3349;SDS011;1688;51.000;13.684;2023-08-21T12:09:04;6.03;;;4.57;;
3349;SDS011;1688;51.000;13.684;2023-08-21T12:11:37;4.13;;;3.73;;
3349;SDS011;1688;51.000;13.684;2023-08-21T12:14:10;5.20;;;3.90;;
3349;SDS011;1688;51.000;13.684;2023-08-21T12:16:43;3.80;;;3.47;;
3349;SDS011;1688;51.000;13.684;2023-08-21T12:19:16;4.60;;;3.97;;
3349;SDS011;1688;51.000;13.684;2023-08-21T12:21:49;10.27;;;3.90;;
3349;SDS011;1688;51.000;13.684;2023-08-21T12:24:23;4.10;;;3.50;;
3349;SDS011;1688;51.000;13.684;2023-08-21T12:26:56;6.67;;;3.70;;
3349;SDS011;1688;51.000;13.684;2023-08-21T12:29:29;7.13;;;4.37;;
3349;SDS011;1688;51.000;13.684;2023-08-21T12:32:02;5.10;;;3.17;;
3349;SDS011;1688;51.000;13.684;2023-08-21T12:34:35;3.33;;;3.03;;
3349;SDS011;1688;51.000;13.684;2023-08-21T12:37:08;4.27;;;3.30;;
3349;SDS011;1688;51.000;13.684;2023-08-21T12:39:41;8.10;;;4.30;;
3349;SDS011;1688;51.000;13.684;2023-08-21T12:42:14;4.10;;;3.70;;
3349;SDS011;1688;51.000;13.684;2023-08-21T12:44:46;4.67;;;4.07;;
3349;SDS011;1688;51.000;13.684;2023-08-21T12:47:19;8.40;;;3.90;;
3349;SDS011;1688;51.000;13.684;2023-08-21T12:49:52;6.00;;;3.67;;
3349;SDS011;1688;51.000;13.684;2023-08-21T12:52:25;3.27;;;2.97;;
3349;SDS011;1688;51.000;13.684;2023-08-21T12:54:58;7.33;;;3.57;;
3349;SDS011;1688;51.000;13.684;2023-08-21T12:57:31;10.80;;;3.93;;
3349;SDS011;1688;51.000;13.684;2023-08-21T13:00:04;5.23;;;3.50;;
3349;SDS011;1688;51.000;13.684;2023-08-21T13:02:38;4.53;;;3.63;;
3349;SDS011;1688;51.000;13.684;2023-08-21T13:05:12;3.90;;;3.50;;
3349;SDS011;1688;51.000;13.684;2023-08-21T13:07:45;4.77;;;4.40;;
3349;SDS011;1688;51.000;13.684;2023-08-21T13:10:18;16.33;;;4.30;;
3349;SDS011;1688;51.000;13.684;2023-08-21T13:12:51;3.97;;;3.67;;
3349;SDS011;1688;51.000;13.684;2023-08-21T13:15:24;3.47;;;3.10;;
3349;SDS011;1688;51.000;13.684;2023-08-21T13:17:57;3.80;;;3.27;;
3349;SDS011;1688;51.000;13.684;2023-08-21T13:20:30;5.43;;;3.77;;
3349;SDS011;1688;51.000;13.684;2023-08-21T13:23:03;4.37;;;3.90;;
3349;SDS011;1688;51.000;13.684;2023-08-21T13:25:35;5.33;;;4.03;;
3349;SDS011;1688;51.000;13.684;2023-08-21T13:28:08;4.27;;;3.13;;
3349;SDS011;1688;51.000;13.684;2023-08-21T13:30:42;5.10;;;4.07;;
3349;SDS011;1688;51.000;13.684;2023-08-21T13:33:15;5.87;;;4.17;;
3349;SDS011;1688;51.000;13.684;2023-08-21T13:35:50;6.17;;;3.40;;
3349;SDS011;1688;51.000;13.684;2023-08-21T13:38:22;4.97;;;3.53;;
3349;SDS011;1688;51.000;13.684;2023-08-21T13:40:55;4.20;;;3.80;;
3349;SDS011;1688;51.000;13.684;2023-08-21T13:43:28;3.40;;;3.10;;
3349;SDS011;1688;51.000;13.684;2023-08-21T13:46:04;3.57;;;3.27;;
3349;SDS011;1688;51.000;13.684;2023-08-21T13:48:37;3.60;;;3.30;;
3349;SDS011;1688;51.000;13.684;2023-08-21T13:51:10;4.30;;;3.90;;
3349;SDS011;1688;51.000;13.684;2023-08-21T13:53:43;3.53;;;3.27;;
3349;SDS011;1688;51.000;13.684;2023-08-21T13:56:15;3.97;;;3.40;;
3349;SDS011;1688;51.000;13.684;2023-08-21T13:58:48;5.37;;;3.60;;
3349;SDS011;1688;51.000;13.684;2023-08-21T14:01:21;6.43;;;4.10;;
3349;SDS011;1688;51.000;13.684;2023-08-21T14:03:54;3.40;;;3.20;;
3349;SDS011;1688;51.000;13.684;2023-08-21T14:06:27;5.00;;;3.70;;
3349;SDS011;1688;51.000;13.684;2023-08-21T14:09:01;4.60;;;3.33;;
3349;SDS011;1688;51.000;13.684;2023-08-21T14:11:34;4.53;;;3.20;;
3349;SDS011;1688;51.000;13.684;2023-08-21T14:14:07;3.90;;;3.07;;
3349;SDS011;1688;51.000;13.684;2023-08-21T14:16:40;3.17;;;2.87;;
3349;SDS011;1688;51.000;13.684;2023-08-21T14:19:13;4.47;;;3.40;;
3349;SDS011;1688;51.000;13.684;2023-08-21T14:21:45;2.70;;;2.20;;
3349;SDS011;1688;51.000;13.684;2023-08-21T14:24:18;3.27;;;2.97;;
3349;SDS011;1688;51.000;13.684;2023-08-21T14:26:51;3.83;;;3.00;;
3349;SDS011;1688;51.000;13.684;2023-08-21T14:29:24;3.93;;;3.43;;
3349;SDS011;1688;51.000;13.684;2023-08-21T14:31:58;3.33;;;2.80;;
3349;SDS011;1688;51.000;13.684;2023-08-21T14:34:32;3.80;;;3.40;;
3349;SDS011;1688;51.000;13.684;2023-08-21T14:37:05;6.53;;;2.63;;
3349;SDS011;1688;51.000;13.684;2023-08-21T14:39:38;3.40;;;2.57;;
3349;SDS011;1688;51.000;13.684;2023-08-21T14:42:10;3.40;;;3.10;;
3349;SDS011;1688;51.000;13.684;2023-08-21T14:44:43;3.60;;;2.80;;
3349;SDS011;1688;51.000;13.684;2023-08-21T14:47:16;3.50;;;2.80;;
3349;SDS011;1688;51.000;13.684;2023-08-21T14:49:49;3.57;;;3.27;;
3349;SDS011;1688;51.000;13.684;2023-08-21T14:52:23;3.77;;;2.93;;
3349;SDS011;1688;51.000;13.684;2023-08-21T14:54:57;4.00;;;3.13;;
3349;SDS011;1688;51.000;13.684;2023-08-21T14:57:30;3.57;;;2.73;;
3349;SDS011;1688;51.000;13.684;2023-08-21T15:00:03;3.77;;;2.70;;
3349;SDS011;1688;51.000;13.684;2023-08-21T15:02:36;3.87;;;2.83;;
3349;SDS011;1688;51.000;13.684;2023-08-21T15:05:09;3.50;;;2.67;;
3349;SDS011;1688;51.000;13.684;2023-08-21T15:07:44;5.00;;;3.27;;
3349;SDS011;1688;51.000;13.684;2023-08-21T15:14:10;4.80;;;3.70;;
3349;SDS011;1688;51.000;13.684;2023-08-21T15:16:44;3.33;;;3.03;;
3349;SDS011;1688;51.000;13.684;2023-08-21T15:19:16;3.40;;;3.00;;
3349;SDS011;1688;51.000;13.684;2023-08-21T15:21:49;3.53;;;3.23;;
3349;SDS011;1688;51.000;13.684;2023-08-21T15:24:22;4.17;;;2.63;;
3349;SDS011;1688;51.000;13.684;2023-08-21T15:26:55;3.50;;;3.20;;
3349;SDS011;1688;51.000;13.684;2023-08-21T15:29:28;6.17;;;3.57;;
3349;SDS011;1688;51.000;13.684;2023-08-21T15:32:01;4.00;;;3.40;;
3349;SDS011;1688;51.000;13.684;2023-08-21T15:34:34;3.57;;;3.20;;
3349;SDS011;1688;51.000;13.684;2023-08-21T15:37:09;5.90;;;4.07;;
3349;SDS011;1688;51.000;13.684;2023-08-21T15:39:41;3.40;;;2.80;;
3349;SDS011;1688;51.000;13.684;2023-08-21T15:42:14;5.23;;;3.40;;
3349;SDS011;1688;51.000;13.684;2023-08-21T15:44:47;3.97;;;3.30;;
3349;SDS011;1688;51.000;13.684;2023-08-21T15:47:20;3.33;;;3.03;;
3349;SDS011;1688;51.000;13.684;2023-08-21T15:50:13;4.87;;;3.37;;
3349;SDS011;1688;51.000;13.684;2023-08-21T15:52:49;5.10;;;2.73;;
3349;SDS011;1688;51.000;13.684;2023-08-21T15:55:21;5.67;;;3.17;;